Time;durP1;ratioP1;P1;durP2;ratioP2;P2;SDS_P1;SDS_P2;PMS_P1;PMS_P2;Temp;Humidity;BMP_temperature;BMP_pressure;BME280_temperature;BME280_humidity;BME280_pressure;Samples;Min_cycle;Max_cycle;Signal;HPM_P1;HPM_P2
2023/09/23 00:01:10;;;;;;;5.90;3.13;;;11.90;99.90;;;;;;5021443;28;20267;-65
2023/09/23 00:03:38;;;;;;;7.37;3.13;;;11.90;99.90;;;;;;5026163;28;20217;-65
2023/09/23 00:06:08;;;;;;;11.07;3.20;;;11.90;99.90;;;;;;5030238;28;20221;-65
2023/09/23 00:08:38;;;;;;;3.33;3.03;;;11.90;99.90;;;;;;5023846;28;20230;-65
2023/09/23 00:11:08;;;;;;;4.47;3.10;;;11.90;99.90;;;;;;5024922;28;20192;-65
2023/09/23 00:13:37;;;;;;;4.67;2.57;;;11.90;99.90;;;;;;5028612;28;20197;-65
2023/09/23 00:16:10;;;;;;;7.90;2.70;;;11.80;99.90;;;;;;5030326;28;20241;-65
2023/09/23 00:18:39;;;;;;;2.80;2.60;;;11.80;99.90;;;;;;5027186;28;20221;-65
2023/09/23 00:21:07;;;;;;;7.90;2.80;;;11.80;99.90;;;;;;5022492;28;20225;-65
2023/09/23 00:23:37;;;;;;;7.17;2.93;;;11.80;99.90;;;;;;5035530;28;20640;-65
2023/09/23 00:26:06;;;;;;;3.43;2.60;;;11.80;99.90;;;;;;5041293;28;20221;-65
2023/09/23 00:28:35;;;;;;;7.37;2.70;;;11.80;99.90;;;;;;5028481;28;20196;-65
2023/09/23 00:31:05;;;;;;;3.20;2.50;;;11.80;99.90;;;;;;5028178;28;20237;-65
2023/09/23 00:33:37;;;;;;;3.73;2.97;;;11.80;99.90;;;;;;5029478;28;20304;-65
2023/09/23 00:36:07;;;;;;;8.87;3.03;;;11.80;99.90;;;;;;5032825;28;20277;-65
2023/09/23 00:38:36;;;;;;;6.20;2.83;;;11.70;99.90;;;;;;5027608;28;20241;-65
2023/09/23 00:41:05;;;;;;;4.80;2.60;;;11.70;99.90;;;;;;5026211;28;20521;-64
2023/09/23 00:43:34;;;;;;;8.87;3.07;;;11.70;99.90;;;;;;5024608;28;20213;-65
2023/09/23 00:46:05;;;;;;;6.93;3.10;;;11.70;99.90;;;;;;5025645;28;20232;-65
2023/09/23 00:48:39;;;;;;;6.47;3.20;;;11.70;99.90;;;;;;5058592;28;20217;-65
2023/09/23 00:51:09;;;;;;;5.03;3.30;;;11.70;99.90;;;;;;5025019;28;20222;-65
2023/09/23 00:53:39;;;;;;;6.67;3.00;;;11.70;99.90;;;;;;5028551;28;20219;-65
2023/09/23 00:56:10;;;;;;;6.13;2.83;;;11.70;99.90;;;;;;5030003;28;20198;-65
2023/09/23 00:58:42;;;;;;;9.00;3.30;;;11.70;99.90;;;;;;5028172;28;20290;-65
2023/09/23 01:01:14;;;;;;;8.23;3.20;;;11.60;99.90;;;;;;5026078;28;20218;-65
2023/09/23 01:03:45;;;;;;;8.27;3.00;;;11.60;99.90;;;;;;5026845;28;20232;-65
2023/09/23 01:06:15;;;;;;;4.13;3.17;;;11.60;99.90;;;;;;5027356;28;20313;-65
2023/09/23 01:08:47;;;;;;;4.83;2.80;;;11.60;99.90;;;;;;5040883;28;20218;-65
2023/09/23 01:11:17;;;;;;;5.60;3.10;;;11.60;99.90;;;;;;5025367;28;20244;-65
2023/09/23 01:13:50;;;;;;;5.10;2.70;;;11.60;99.90;;;;;;5028383;28;20185;-65
2023/09/23 01:16:18;;;;;;;5.63;2.93;;;11.60;99.90;;;;;;5027119;28;20221;-65
2023/09/23 01:18:49;;;;;;;6.87;2.93;;;11.50;99.90;;;;;;5026020;28;20305;-65
2023/09/23 01:21:18;;;;;;;10.83;3.60;;;11.50;99.90;;;;;;5024874;28;21588;-65
2023/09/23 01:23:48;;;;;;;8.67;3.27;;;11.50;99.90;;;;;;5026225;28;20909;-65
2023/09/23 01:26:17;;;;;;;7.40;2.90;;;11.40;99.90;;;;;;5025128;28;20222;-65
2023/09/23 01:28:48;;;;;;;7.77;3.37;;;11.40;99.90;;;;;;5027363;28;20766;-65
2023/09/23 01:31:20;;;;;;;4.33;3.00;;;11.40;99.90;;;;;;5026218;28;20221;-65
2023/09/23 01:33:50;;;;;;;7.13;3.00;;;11.50;99.90;;;;;;5025234;28;20221;-65
2023/09/23 01:36:19;;;;;;;7.67;3.17;;;11.40;99.90;;;;;;5025967;28;20215;-65
2023/09/23 01:38:49;;;;;;;7.73;3.10;;;11.40;99.90;;;;;;5024866;28;20217;-65
2023/09/23 01:41:18;;;;;;;13.07;2.80;;;11.40;99.90;;;;;;5027370;28;20234;-65
2023/09/23 01:43:48;;;;;;;3.83;2.60;;;11.50;99.90;;;;;;5027915;28;20682;-65
2023/09/23 01:46:17;;;;;;;5.80;3.10;;;11.40;99.90;;;;;;5025150;28;20627;-65
2023/09/23 01:48:45;;;;;;;6.10;2.90;;;11.40;99.90;;;;;;5020676;28;20261;-65
2023/09/23 01:51:16;;;;;;;8.47;3.10;;;11.40;99.90;;;;;;5026827;28;20580;-65
2023/09/23 01:53:45;;;;;;;7.33;2.90;;;11.40;99.90;;;;;;5027060;28;20228;-65
2023/09/23 01:56:14;;;;;;;9.87;2.83;;;11.40;99.90;;;;;;5025279;28;20245;-65
2023/09/23 01:58:43;;;;;;;7.60;2.80;;;11.30;99.90;;;;;;5024386;28;20231;-65
2023/09/23 02:01:13;;;;;;;3.57;2.57;;;11.30;99.90;;;;;;5036544;28;20225;-65
2023/09/23 02:03:42;;;;;;;6.10;3.00;;;11.30;99.90;;;;;;5029072;28;20320;-65
2023/09/23 02:06:11;;;;;;;6.47;2.97;;;11.30;99.90;;;;;;5023878;28;20316;-65
2023/09/23 02:08:40;;;;;;;6.23;2.90;;;11.20;99.90;;;;;;5025017;28;20226;-65
2023/09/23 02:11:08;;;;;;;12.13;3.07;;;11.20;99.90;;;;;;5025918;28;20196;-65
2023/09/23 02:13:40;;;;;;;3.83;3.10;;;11.20;99.90;;;;;;5023458;28;20193;-65
2023/09/23 02:16:10;;;;;;;6.33;2.67;;;11.20;99.90;;;;;;5025143;28;20279;-65
2023/09/23 02:18:39;;;;;;;8.27;2.63;;;11.20;99.90;;;;;;5021228;28;20229;-65
2023/09/23 02:21:08;;;;;;;8.17;3.17;;;11.20;99.90;;;;;;5030485;28;20225;-65
2023/09/23 02:23:37;;;;;;;6.10;3.10;;;11.20;99.90;;;;;;5026301;28;20237;-65
2023/09/23 02:26:07;;;;;;;9.30;3.10;;;11.10;99.90;;;;;;5021770;28;20245;-65
2023/09/23 02:28:36;;;;;;;9.50;3.63;;;11.10;99.90;;;;;;5030383;28;20200;-65
2023/09/23 02:31:06;;;;;;;4.90;2.93;;;11.10;99.90;;;;;;5026745;28;20221;-65
2023/09/23 02:33:35;;;;;;;8.40;3.10;;;11.10;99.90;;;;;;5026417;28;20233;-65
2023/09/23 02:36:03;;;;;;;3.67;2.93;;;11.00;99.90;;;;;;5025102;28;20221;-65
2023/09/23 02:38:32;;;;;;;5.57;2.93;;;11.00;99.90;;;;;;5024666;28;20665;-65
2023/09/23 02:41:05;;;;;;;7.33;3.13;;;11.00;99.90;;;;;;5024650;28;20189;-65
2023/09/23 02:43:34;;;;;;;8.37;2.97;;;11.00;99.90;;;;;;5027353;28;20208;-65
2023/09/23 02:46:06;;;;;;;5.43;3.20;;;11.00;99.90;;;;;;5025635;28;20225;-65
2023/09/23 02:48:35;;;;;;;5.43;3.13;;;11.00;99.90;;;;;;5025339;28;20312;-65
2023/09/23 02:51:04;;;;;;;4.73;3.07;;;11.00;99.90;;;;;;5022171;28;20222;-65
2023/09/23 02:53:32;;;;;;;3.20;2.90;;;10.90;99.90;;;;;;5025976;28;20225;-65
2023/09/23 02:56:05;;;;;;;7.17;3.03;;;10.90;99.90;;;;;;5022700;28;20224;-65
2023/09/23 02:58:34;;;;;;;5.70;3.30;;;10.80;99.90;;;;;;5025946;28;20182;-65
2023/09/23 03:01:05;;;;;;;6.40;3.00;;;10.80;99.90;;;;;;5021923;28;20210;-65
2023/09/23 03:03:37;;;;;;;4.87;3.50;;;10.80;99.90;;;;;;5026483;28;20300;-65
2023/09/23 03:06:07;;;;;;;6.07;3.57;;;10.80;99.90;;;;;;5026244;28;20672;-65
2023/09/23 03:08:37;;;;;;;6.63;3.30;;;10.80;99.90;;;;;;5024341;28;20221;-65
2023/09/23 03:11:11;;;;;;;13.87;3.00;;;10.90;99.90;;;;;;5023801;28;20606;-65
2023/09/23 03:13:39;;;;;;;5.77;3.03;;;10.80;99.90;;;;;;5024611;28;20198;-65
2023/09/23 03:16:12;;;;;;;6.60;3.13;;;10.80;99.90;;;;;;5028873;28;20248;-65
2023/09/23 03:18:54;;;;;;;3.57;3.20;;;10.80;99.90;;;;;;5025401;28;20723;-65
2023/09/23 03:21:24;;;;;;;5.40;3.30;;;10.80;99.90;;;;;;5024491;28;20217;-65
2023/09/23 03:23:53;;;;;;;8.40;3.00;;;10.80;99.90;;;;;;5024032;28;20230;-65
2023/09/23 03:26:21;;;;;;;5.83;3.40;;;10.80;99.90;;;;;;5030493;28;20236;-65
2023/09/23 03:28:50;;;;;;;5.37;3.10;;;10.80;99.90;;;;;;5022649;28;20186;-62
2023/09/23 03:31:19;;;;;;;5.80;3.50;;;10.80;99.90;;;;;;5026985;28;20241;-65
2023/09/23 03:33:49;;;;;;;6.10;3.57;;;10.80;99.90;;;;;;5023317;28;20248;-65
2023/09/23 03:36:18;;;;;;;6.63;3.63;;;10.70;99.90;;;;;;5026341;28;20224;-65
2023/09/23 03:38:49;;;;;;;7.17;3.17;;;10.70;99.90;;;;;;5025743;28;20224;-65
2023/09/23 03:41:17;;;;;;;5.80;3.70;;;10.80;99.90;;;;;;5020799;28;20239;-65
2023/09/23 03:43:46;;;;;;;5.17;3.23;;;10.80;99.90;;;;;;5025605;28;20259;-65
2023/09/23 03:46:17;;;;;;;3.73;3.30;;;10.80;99.90;;;;;;5022417;28;20221;-65
2023/09/23 03:48:46;;;;;;;7.83;3.37;;;10.80;99.90;;;;;;5040656;28;20637;-65
2023/09/23 03:51:17;;;;;;;6.00;3.13;;;10.70;99.90;;;;;;5025705;28;20296;-65
2023/09/23 03:53:49;;;;;;;9.40;3.77;;;10.70;99.90;;;;;;5025680;28;20248;-65
2023/09/23 03:56:19;;;;;;;3.30;3.00;;;10.70;99.90;;;;;;5024280;28;20232;-64
2023/09/23 03:58:47;;;;;;;3.57;3.10;;;10.70;99.90;;;;;;5029390;28;20208;-65
2023/09/23 04:01:16;;;;;;;3.60;3.00;;;10.70;99.90;;;;;;5028708;28;20214;-65
2023/09/23 04:03:45;;;;;;;7.23;3.40;;;10.60;99.90;;;;;;5030438;28;20229;-65
2023/09/23 04:06:13;;;;;;;9.27;3.50;;;10.70;99.90;;;;;;5024345;28;20221;-65
2023/09/23 04:08:43;;;;;;;4.13;3.23;;;10.70;99.90;;;;;;5024722;28;20224;-65
2023/09/23 04:11:15;;;;;;;7.17;3.60;;;10.70;99.90;;;;;;5029779;28;20235;-64
2023/09/23 04:13:46;;;;;;;7.03;3.47;;;10.70;99.90;;;;;;5028240;28;20191;-65
2023/09/23 04:16:14;;;;;;;4.53;3.50;;;10.70;99.90;;;;;;5028967;28;20352;-65
2023/09/23 04:18:43;;;;;;;5.47;3.53;;;10.70;99.90;;;;;;5028168;28;20229;-65
2023/09/23 04:21:12;;;;;;;6.47;4.03;;;10.70;99.90;;;;;;5027523;28;20217;-65
2023/09/23 04:23:40;;;;;;;8.43;3.40;;;10.70;99.90;;;;;;5027793;28;20227;-65
2023/09/23 04:26:12;;;;;;;4.73;3.37;;;10.70;99.90;;;;;;5025855;28;20224;-65
2023/09/23 04:28:41;;;;;;;10.63;4.13;;;10.60;99.90;;;;;;5025176;28;20281;-65
2023/09/23 04:31:13;;;;;;;3.83;3.53;;;10.60;99.90;;;;;;5027219;28;20221;-65
2023/09/23 04:33:41;;;;;;;6.07;3.67;;;10.60;99.90;;;;;;5024287;28;20229;-65
2023/09/23 04:36:11;;;;;;;8.13;3.63;;;10.60;99.90;;;;;;5024027;28;20236;-65
2023/09/23 04:38:39;;;;;;;5.97;3.73;;;10.60;99.90;;;;;;5024930;28;20348;-66
2023/09/23 04:41:08;;;;;;;9.00;3.73;;;10.60;99.90;;;;;;5027556;28;20594;-65
2023/09/23 04:43:39;;;;;;;5.53;3.77;;;10.60;99.90;;;;;;5024191;28;20221;-65
2023/09/23 04:46:08;;;;;;;7.23;4.10;;;10.50;99.90;;;;;;5026356;28;20276;-65
2023/09/23 04:48:36;;;;;;;9.30;4.00;;;10.50;99.90;;;;;;5025900;28;20992;-65
2023/09/23 04:51:08;;;;;;;6.80;3.87;;;10.50;99.90;;;;;;5025538;28;20217;-65
2023/09/23 04:53:37;;;;;;;6.50;4.50;;;10.50;99.90;;;;;;5024809;28;20230;-65
2023/09/23 04:56:08;;;;;;;8.87;4.20;;;10.50;99.90;;;;;;5028343;28;20284;-65
2023/09/23 04:58:38;;;;;;;6.40;3.60;;;10.50;99.90;;;;;;5021664;28;20704;-65
2023/09/23 05:01:09;;;;;;;6.47;4.30;;;10.50;99.90;;;;;;5023268;28;20795;-65
2023/09/23 05:03:37;;;;;;;5.30;4.17;;;10.50;99.90;;;;;;5027888;28;20251;-65
2023/09/23 05:06:07;;;;;;;7.43;4.23;;;10.50;99.90;;;;;;5026185;28;20729;-65
2023/09/23 05:08:36;;;;;;;5.97;4.13;;;10.50;99.90;;;;;;5023970;28;20233;-65
2023/09/23 05:11:06;;;;;;;6.57;4.30;;;10.50;99.90;;;;;;5027877;28;20202;-65
2023/09/23 05:13:36;;;;;;;7.90;4.63;;;10.50;99.90;;;;;;5030440;28;20216;-65
2023/09/23 05:16:07;;;;;;;8.27;4.40;;;10.50;99.90;;;;;;5028490;28;20213;-65
2023/09/23 05:18:35;;;;;;;9.40;4.40;;;10.50;99.90;;;;;;5022413;28;20217;-65
2023/09/23 05:21:05;;;;;;;11.40;4.30;;;10.50;99.90;;;;;;5022956;28;20217;-65
2023/09/23 05:23:34;;;;;;;5.73;4.07;;;10.50;99.90;;;;;;5041035;28;20313;-65
2023/09/23 05:26:04;;;;;;;8.23;4.20;;;10.50;99.90;;;;;;5029474;28;20276;-65
2023/09/23 05:28:33;;;;;;;6.17;4.47;;;10.50;99.90;;;;;;5027793;28;20236;-65
2023/09/23 05:31:05;;;;;;;5.00;4.50;;;10.50;99.90;;;;;;5030617;28;20216;-65
2023/09/23 05:33:35;;;;;;;4.77;4.20;;;10.50;99.90;;;;;;5027352;28;20226;-65
2023/09/23 05:36:04;;;;;;;10.13;4.47;;;10.50;99.90;;;;;;5025187;28;20279;-65
2023/09/23 05:38:36;;;;;;;7.87;4.23;;;10.50;99.90;;;;;;5024709;28;20692;-65
2023/09/23 05:41:05;;;;;;;5.33;3.77;;;10.50;99.90;;;;;;5044761;28;20185;-65
2023/09/23 05:43:33;;;;;;;6.27;4.17;;;10.50;99.90;;;;;;5028064;28;20200;-65
2023/09/23 05:46:05;;;;;;;7.60;4.37;;;10.60;99.90;;;;;;5030508;28;20224;-65
2023/09/23 05:48:35;;;;;;;7.63;4.00;;;10.50;99.90;;;;;;5023142;28;20247;-65
2023/09/23 05:51:06;;;;;;;6.53;4.33;;;10.50;99.90;;;;;;5035780;28;20309;-65
2023/09/23 05:53:34;;;;;;;6.83;4.27;;;10.60;99.90;;;;;;5022855;28;20221;-65
2023/09/23 05:56:03;;;;;;;12.00;4.20;;;10.60;99.90;;;;;;5025180;28;20581;-65
2023/09/23 05:58:31;;;;;;;5.53;3.90;;;10.60;99.90;;;;;;5026138;28;20217;-65
2023/09/23 06:01:00;;;;;;;4.23;3.80;;;10.60;99.90;;;;;;5019468;28;20553;-65
2023/09/23 06:03:29;;;;;;;5.70;4.20;;;10.70;99.90;;;;;;5027662;28;20737;-65
2023/09/23 06:05:59;;;;;;;7.10;4.20;;;10.70;99.90;;;;;;5032999;28;20306;-65
2023/09/23 06:08:27;;;;;;;6.77;4.40;;;10.70;99.90;;;;;;5024146;28;20616;-65
2023/09/23 06:11:03;;;;;;;9.80;3.77;;;10.70;99.90;;;;;;5024442;28;20574;-65
2023/09/23 06:13:32;;;;;;;4.20;3.80;;;10.80;99.90;;;;;;5021640;28;20198;-65
2023/09/23 06:16:03;;;;;;;6.77;3.73;;;10.80;99.90;;;;;;5024608;28;20214;-65
2023/09/23 06:18:33;;;;;;;7.97;3.87;;;10.80;99.90;;;;;;5018447;28;20331;-66
2023/09/23 06:21:03;;;;;;;13.90;4.07;;;10.80;99.90;;;;;;5021435;28;20224;-65
2023/09/23 06:23:32;;;;;;;7.80;3.87;;;10.90;99.90;;;;;;5020387;28;20282;-65
2023/09/23 06:26:02;;;;;;;9.50;3.80;;;11.00;99.90;;;;;;5028573;28;20565;-65
2023/09/23 06:28:31;;;;;;;8.83;3.83;;;11.10;99.90;;;;;;5024657;28;20196;-65
2023/09/23 06:31:00;;;;;;;5.00;3.57;;;11.20;99.90;;;;;;5020956;28;20224;-66
2023/09/23 06:33:28;;;;;;;9.57;3.87;;;11.20;99.90;;;;;;5038022;28;20316;-65
2023/09/23 06:36:01;;;;;;;8.27;3.70;;;11.30;99.90;;;;;;5016112;28;20218;-65
2023/09/23 06:38:31;;;;;;;7.97;3.47;;;11.40;99.90;;;;;;5022793;28;20287;-65
2023/09/23 06:41:00;;;;;;;7.97;3.43;;;11.50;99.90;;;;;;5020960;28;20233;-65
2023/09/23 06:43:28;;;;;;;9.63;4.10;;;11.50;99.90;;;;;;5025494;28;20276;-65
2023/09/23 06:45:58;;;;;;;4.83;3.30;;;11.60;99.90;;;;;;5020191;28;20308;-65
2023/09/23 06:48:26;;;;;;;6.67;3.40;;;11.70;99.90;;;;;;5024543;28;20312;-66
2023/09/23 06:50:59;;;;;;;8.03;3.60;;;11.70;99.90;;;;;;5018890;28;20908;-66
2023/09/23 06:53:28;;;;;;;5.37;3.10;;;11.80;99.90;;;;;;5023769;28;20252;-66
2023/09/23 06:55:58;;;;;;;6.17;3.27;;;11.90;99.90;;;;;;5019063;28;20209;-65
2023/09/23 06:58:26;;;;;;;4.73;3.00;;;12.00;99.90;;;;;;5020807;28;20820;-65
2023/09/23 07:00:55;;;;;;;3.97;3.10;;;12.10;99.90;;;;;;5022885;28;20213;-65
2023/09/23 07:03:24;;;;;;;6.43;2.87;;;12.20;99.90;;;;;;5022950;28;20213;-65
2023/09/23 07:05:52;;;;;;;3.23;2.90;;;12.30;99.90;;;;;;5023053;28;20752;-65
2023/09/23 07:08:21;;;;;;;4.27;2.90;;;12.30;99.90;;;;;;5019935;28;20779;-65
2023/09/23 07:10:49;;;;;;;5.90;2.80;;;12.40;99.90;;;;;;5023988;28;20200;-66
2023/09/23 07:13:19;;;;;;;3.00;2.70;;;12.50;99.90;;;;;;5022769;28;20899;-66
2023/09/23 07:15:48;;;;;;;7.30;3.00;;;12.60;99.90;;;;;;5022379;28;20240;-65
2023/09/23 07:18:16;;;;;;;6.30;3.27;;;12.70;99.90;;;;;;5018765;28;20218;-66
2023/09/23 07:20:45;;;;;;;5.03;2.77;;;12.70;99.90;;;;;;5023901;28;20292;-65
2023/09/23 07:23:13;;;;;;;4.60;2.90;;;12.90;99.90;;;;;;5021508;28;20627;-65
2023/09/23 07:25:43;;;;;;;6.97;2.87;;;13.00;99.90;;;;;;5024618;28;20209;-65
2023/09/23 07:28:11;;;;;;;3.07;2.50;;;13.10;99.90;;;;;;5026192;28;20315;-65
2023/09/23 07:30:41;;;;;;;5.67;2.83;;;13.10;99.90;;;;;;5019381;28;20224;-65
2023/09/23 07:33:09;;;;;;;7.30;2.80;;;13.20;99.90;;;;;;5023821;28;20229;-65
2023/09/23 07:35:38;;;;;;;8.63;3.00;;;13.30;99.90;;;;;;5025647;28;20229;-65
2023/09/23 07:38:06;;;;;;;4.10;2.40;;;13.40;99.90;;;;;;5024161;28;20216;-65
2023/09/23 07:40:40;;;;;;;5.50;2.80;;;13.60;99.90;;;;;;5025511;28;20553;-65
2023/09/23 07:43:08;;;;;;;8.60;2.77;;;13.70;99.90;;;;;;5020775;28;20517;-65
2023/09/23 07:45:36;;;;;;;6.47;2.70;;;13.80;99.90;;;;;;5026024;28;20224;-65
2023/09/23 07:48:08;;;;;;;4.23;3.40;;;13.90;99.90;;;;;;5023240;28;20229;-65
2023/09/23 07:50:36;;;;;;;9.03;2.80;;;14.00;99.90;;;;;;5023127;28;20273;-65
2023/09/23 07:53:05;;;;;;;6.83;2.50;;;14.00;99.90;;;;;;5025936;28;20201;-65
2023/09/23 07:55:33;;;;;;;7.03;2.50;;;14.10;99.90;;;;;;5023557;28;20180;-65
2023/09/23 07:58:02;;;;;;;5.17;2.60;;;14.20;99.90;;;;;;5024505;28;20297;-65
2023/09/23 08:00:30;;;;;;;10.03;2.67;;;14.20;99.90;;;;;;5026728;28;20223;-65
2023/09/23 08:02:58;;;;;;;3.00;2.70;;;14.30;99.90;;;;;;5020258;28;20221;-66
2023/09/23 08:05:29;;;;;;;5.77;2.40;;;14.40;99.90;;;;;;5025577;28;20237;-64
2023/09/23 08:07:58;;;;;;;5.57;3.03;;;14.50;99.90;;;;;;5023290;28;20198;-64
2023/09/23 08:10:26;;;;;;;5.80;2.83;;;14.60;99.90;;;;;;5027653;28;20193;-65
2023/09/23 08:12:55;;;;;;;6.23;2.80;;;14.60;99.90;;;;;;5026345;28;20229;-65
2023/09/23 08:15:23;;;;;;;4.93;2.47;;;14.70;99.90;;;;;;5022077;28;20687;-64
2023/09/23 08:17:52;;;;;;;3.37;1.90;;;14.90;99.90;;;;;;5026332;28;20230;-65
2023/09/23 08:20:22;;;;;;;11.47;2.57;;;14.80;99.90;;;;;;5024097;28;20735;-65
2023/09/23 08:22:53;;;;;;;4.40;2.00;;;14.90;99.90;;;;;;5025048;28;20259;-65
2023/09/23 08:25:26;;;;;;;4.67;2.17;;;15.00;99.90;;;;;;5024061;28;20195;-65
2023/09/23 08:27:54;;;;;;;2.93;2.23;;;15.00;99.90;;;;;;5021000;28;20232;-65
2023/09/23 08:30:23;;;;;;;5.47;1.93;;;15.00;99.90;;;;;;5023225;28;20295;-65
2023/09/23 08:32:53;;;;;;;7.57;2.57;;;15.20;99.90;;;;;;5026204;28;20225;-65
2023/09/23 08:35:22;;;;;;;2.27;1.97;;;15.10;99.90;;;;;;5022157;28;20221;-65
2023/09/23 08:37:52;;;;;;;6.40;2.37;;;15.10;99.90;;;;;;5026307;28;20195;-64
2023/09/23 08:40:21;;;;;;;6.60;2.33;;;15.30;99.90;;;;;;5022937;28;20187;-64
2023/09/23 08:42:53;;;;;;;4.70;2.20;;;15.40;99.90;;;;;;5024693;28;20226;-64
2023/09/23 08:45:26;;;;;;;6.63;2.10;;;15.40;99.90;;;;;;5024787;28;20225;-64
2023/09/23 08:47:55;;;;;;;12.97;2.57;;;15.50;99.90;;;;;;5022101;28;20233;-64
2023/09/23 08:50:25;;;;;;;6.97;1.90;;;15.60;99.90;;;;;;5025773;28;20225;-65
2023/09/23 08:52:57;;;;;;;6.00;2.17;;;15.50;99.90;;;;;;5026000;28;20257;-64
2023/09/23 08:55:28;;;;;;;7.53;2.20;;;15.70;99.90;;;;;;5026993;28;20320;-65
2023/09/23 08:58:01;;;;;;;6.43;2.40;;;15.80;99.90;;;;;;5039623;28;20548;-65
2023/09/23 09:00:31;;;;;;;6.23;1.90;;;15.90;99.90;;;;;;5025001;28;20220;-65
2023/09/23 09:02:59;;;;;;;2.80;2.00;;;15.80;99.90;;;;;;5023234;28;20245;-65
2023/09/23 09:05:37;;;;;;;6.33;2.23;;;15.90;99.90;;;;;;5024473;28;20221;-65
2023/09/23 09:08:07;;;;;;;4.53;1.90;;;16.00;99.90;;;;;;5024583;28;20205;-65
2023/09/23 09:10:36;;;;;;;2.67;1.57;;;16.20;99.90;;;;;;5022303;28;20199;-64
2023/09/23 09:13:06;;;;;;;6.23;2.20;;;16.10;99.90;;;;;;5021801;28;20224;-64
2023/09/23 09:15:36;;;;;;;4.10;1.70;;;16.10;99.90;;;;;;5025486;28;20244;-65
2023/09/23 09:18:05;;;;;;;4.50;2.00;;;16.30;99.90;;;;;;5020795;28;20254;-65
2023/09/23 09:20:34;;;;;;;2.63;1.73;;;16.40;99.90;;;;;;5035671;28;20217;-65
2023/09/23 09:23:02;;;;;;;5.77;2.30;;;16.50;99.90;;;;;;5021470;28;20206;-65
2023/09/23 09:25:32;;;;;;;3.30;1.70;;;16.70;99.90;;;;;;5023996;28;20189;-64
2023/09/23 09:28:02;;;;;;;7.10;1.60;;;16.60;99.90;;;;;;5019923;28;20311;-65
2023/09/23 09:30:31;;;;;;;4.77;1.77;;;16.50;99.90;;;;;;5023433;28;20693;-64
2023/09/23 09:33:02;;;;;;;3.87;2.20;;;16.40;99.90;;;;;;5022257;28;20224;-65
2023/09/23 09:35:32;;;;;;;8.37;2.27;;;16.50;99.90;;;;;;5027894;28;20277;-64
2023/09/23 09:38:06;;;;;;;4.70;1.80;;;16.40;99.90;;;;;;5022635;28;20236;-65
2023/09/23 09:40:48;;;;;;;6.67;2.10;;;16.50;99.90;;;;;;5022077;28;20691;-65
2023/09/23 09:43:18;;;;;;;3.13;1.80;;;16.60;99.90;;;;;;5024168;28;20244;-64
2023/09/23 09:45:48;;;;;;;6.30;2.17;;;16.80;99.90;;;;;;5018103;28;20272;-65
2023/09/23 09:48:19;;;;;;;6.33;1.80;;;16.90;99.90;;;;;;5024773;28;20233;-65
2023/09/23 09:50:50;;;;;;;4.23;1.80;;;16.90;99.90;;;;;;5023401;28;20228;-65
2023/09/23 09:53:21;;;;;;;1.87;1.60;;;16.90;99.90;;;;;;5023586;28;20272;-65
2023/09/23 09:55:51;;;;;;;4.30;1.87;;;16.90;99.90;;;;;;5021599;28;20284;-65
2023/09/23 09:58:23;;;;;;;2.33;1.80;;;17.00;99.90;;;;;;5018851;28;20253;-66
2023/09/23 10:00:52;;;;;;;3.10;1.70;;;16.90;99.90;;;;;;5022628;28;20249;-65
2023/09/23 10:03:27;;;;;;;4.30;1.90;;;16.80;99.90;;;;;;5021738;28;20217;-65
2023/09/23 10:06:00;;;;;;;9.07;1.90;;;16.70;99.90;;;;;;5026557;28;20239;-65
2023/09/23 10:08:38;;;;;;;3.87;1.87;;;16.80;99.90;;;;;;5018384;28;20233;-65
2023/09/23 10:11:09;;;;;;;3.07;1.97;;;17.00;99.90;;;;;;5024209;28;20219;-65
2023/09/23 10:13:38;;;;;;;7.40;2.10;;;17.30;99.90;;;;;;5023032;28;20561;-65
2023/09/23 10:16:11;;;;;;;8.20;1.90;;;17.60;99.90;;;;;;5022585;28;20225;-65
2023/09/23 10:18:41;;;;;;;5.27;2.00;;;17.80;99.90;;;;;;5019448;28;20232;-65
2023/09/23 10:21:22;;;;;;;6.13;2.00;;;17.70;99.90;;;;;;5024350;28;20222;-65
2023/09/23 10:23:52;;;;;;;3.83;1.70;;;17.50;99.90;;;;;;5023873;28;20616;-65
2023/09/23 10:26:23;;;;;;;6.90;2.10;;;17.40;99.90;;;;;;5022896;28;20227;-65
2023/09/23 10:28:58;;;;;;;6.67;2.60;;;17.20;99.90;;;;;;5022073;28;20333;-65
2023/09/23 10:31:28;;;;;;;3.10;1.90;;;17.10;99.90;;;;;;5022088;28;20244;-65
2023/09/23 10:33:56;;;;;;;5.37;2.23;;;17.00;99.90;;;;;;5018843;28;20695;-64
2023/09/23 10:36:26;;;;;;;6.27;2.03;;;17.20;99.90;;;;;;5018540;28;20217;-65
2023/09/23 10:38:55;;;;;;;4.37;2.27;;;17.30;99.90;;;;;;5020026;28;20287;-66
2023/09/23 10:41:34;;;;;;;5.23;2.00;;;17.60;99.90;;;;;;5020247;28;20237;-65
2023/09/23 10:44:03;;;;;;;4.33;1.83;;;17.60;99.90;;;;;;5035650;28;20283;-66
2023/09/23 10:46:32;;;;;;;4.13;2.10;;;17.60;99.90;;;;;;5024582;28;20194;-65
2023/09/23 10:49:01;;;;;;;4.90;2.40;;;17.70;99.90;;;;;;5019725;28;20225;-65
2023/09/23 10:51:31;;;;;;;2.10;1.80;;;17.90;99.90;;;;;;5022892;28;20283;-65
2023/09/23 10:54:00;;;;;;;5.67;1.70;;;18.00;99.90;;;;;;5022479;28;20227;-66
2023/09/23 10:56:29;;;;;;;3.63;1.83;;;17.90;99.90;;;;;;5026159;28;20761;-66
2023/09/23 10:58:59;;;;;;;3.97;1.83;;;17.80;99.90;;;;;;5019080;28;20177;-66
2023/09/23 11:01:29;;;;;;;4.40;2.20;;;18.00;99.90;;;;;;5018878;28;20232;-64
2023/09/23 11:03:58;;;;;;;2.77;1.90;;;18.10;99.90;;;;;;5021869;28;20222;-66
2023/09/23 11:06:27;;;;;;;4.57;1.83;;;18.10;99.90;;;;;;5022717;28;20220;-66
2023/09/23 11:08:55;;;;;;;4.60;2.10;;;18.20;99.90;;;;;;5021762;28;20221;-66
2023/09/23 11:11:23;;;;;;;5.03;2.53;;;18.20;99.90;;;;;;5023629;28;20352;-65
2023/09/23 11:13:54;;;;;;;3.87;2.20;;;18.00;99.90;;;;;;5020159;28;20205;-65
2023/09/23 11:16:24;;;;;;;4.73;2.43;;;17.70;99.90;;;;;;5026364;28;20233;-65
2023/09/23 11:18:55;;;;;;;3.17;2.60;;;17.50;99.90;;;;;;5029361;28;20283;-65
2023/09/23 11:21:23;;;;;;;4.13;2.23;;;17.70;99.90;;;;;;5018838;28;20222;-66
2023/09/23 11:23:57;;;;;;;3.17;2.30;;;17.90;99.90;;;;;;5021248;28;20221;-65
2023/09/23 11:26:27;;;;;;;1.97;1.87;;;18.10;99.90;;;;;;5023395;28;20237;-65
2023/09/23 11:28:55;;;;;;;3.53;2.30;;;18.30;99.90;;;;;;5019404;28;20271;-64
2023/09/23 11:31:25;;;;;;;3.90;2.37;;;18.20;99.90;;;;;;5024205;28;20202;-65
2023/09/23 11:33:53;;;;;;;6.30;2.90;;;18.20;99.90;;;;;;5022274;28;20596;-65
2023/09/23 11:36:22;;;;;;;5.37;3.10;;;18.20;99.90;;;;;;5021223;28;20778;-65
2023/09/23 11:38:50;;;;;;;3.73;3.30;;;18.10;99.90;;;;;;5014550;28;20225;-65
2023/09/23 11:41:19;;;;;;;5.80;2.97;;;18.20;99.90;;;;;;5018705;28;20222;-65
2023/09/23 11:43:50;;;;;;;2.73;2.53;;;18.30;99.90;;;;;;5020792;28;20215;-66
2023/09/23 11:46:22;;;;;;;3.27;2.97;;;18.40;99.90;;;;;;5012792;28;21244;-66
2023/09/23 11:48:51;;;;;;;3.80;3.30;;;18.60;99.90;;;;;;5017179;28;20224;-66
2023/09/23 11:51:20;;;;;;;3.27;2.97;;;18.90;99.90;;;;;;5019602;28;20245;-65
2023/09/23 11:53:49;;;;;;;3.87;3.07;;;19.20;99.90;;;;;;5018742;28;20732;-65
2023/09/23 11:56:17;;;;;;;7.13;3.10;;;18.90;99.90;;;;;;5019265;28;20367;-65
2023/09/23 11:58:45;;;;;;;4.10;3.10;;;19.00;99.90;;;;;;5019387;28;20193;-65
2023/09/23 12:01:34;;;;;;;4.00;3.60;;;19.10;99.90;;;;;;5017135;28;20233;-65
2023/09/23 12:04:04;;;;;;;4.03;3.17;;;19.30;99.90;;;;;;5014548;28;20233;-65
2023/09/23 12:06:35;;;;;;;3.00;2.87;;;19.20;99.90;;;;;;5021485;28;20217;-65
2023/09/23 12:09:08;;;;;;;3.27;3.07;;;19.00;99.90;;;;;;5016026;28;20341;-65
2023/09/23 12:11:37;;;;;;;4.17;3.60;;;18.90;99.90;;;;;;5021112;28;20231;-65
2023/09/23 12:14:05;;;;;;;3.87;3.57;;;19.00;99.90;;;;;;5021612;28;20653;-65
2023/09/23 12:16:34;;;;;;;4.00;3.70;;;19.10;99.90;;;;;;5024821;28;20318;-65
2023/09/23 12:19:04;;;;;;;3.93;3.60;;;19.10;99.90;;;;;;5020064;28;20223;-65
2023/09/23 12:21:32;;;;;;;4.27;3.70;;;19.20;99.90;;;;;;5022682;28;20229;-64
2023/09/23 12:24:03;;;;;;;7.20;3.77;;;19.20;99.90;;;;;;5026268;28;20490;-64
2023/09/23 12:26:32;;;;;;;4.03;3.60;;;19.10;99.90;;;;;;5023751;28;20221;-65
2023/09/23 12:29:00;;;;;;;5.10;3.07;;;19.00;99.90;;;;;;5025083;28;20625;-65
2023/09/23 12:31:28;;;;;;;3.50;3.00;;;19.00;99.90;;;;;;5027116;28;20548;-65
2023/09/23 12:33:57;;;;;;;3.10;2.70;;;19.20;99.90;;;;;;5021472;28;20317;-65
2023/09/23 12:36:27;;;;;;;3.47;2.97;;;19.30;99.90;;;;;;5020478;28;21200;-65
2023/09/23 12:38:57;;;;;;;2.50;2.40;;;19.30;99.90;;;;;;5022513;28;20252;-65
2023/09/23 12:41:25;;;;;;;4.70;2.50;;;19.60;99.90;;;;;;5021288;28;20883;-65
2023/09/23 12:43:54;;;;;;;6.20;2.73;;;19.60;99.90;;;;;;5019500;28;20197;-65
2023/09/23 12:46:22;;;;;;;4.87;2.40;;;19.70;99.90;;;;;;5038292;28;20210;-64
2023/09/23 12:48:51;;;;;;;2.23;2.10;;;19.70;99.90;;;;;;5027857;28;20849;-65
2023/09/23 12:51:22;;;;;;;3.63;2.20;;;19.70;99.90;;;;;;5025153;28;20252;-65
2023/09/23 12:53:52;;;;;;;3.10;2.40;;;19.40;99.90;;;;;;5022241;28;20593;-64
2023/09/23 12:56:21;;;;;;;2.53;1.97;;;19.20;99.90;;;;;;5025354;28;20221;-63
2023/09/23 12:58:53;;;;;;;3.20;2.10;;;19.30;99.90;;;;;;5021079;28;20190;-66